KRDD

Redding Municipal Airport

Redding, California, USA
METAR KRDD 212153Z 12004KT 10SM CLR 36/03 A2990 RMK AO2 SLP118 T03560028
Observed Flight Rules
Jun-21 @ 21:53 UTC (13 minutes ago) Visual Flight Rules
Wind Visibility Clouds
120° at 4 knots 10 miles
  • Clear skies
Temperatures Readings
Current 36°C / 97°F
Dewpoint 3°C / 37°F
Humidity 13%
Altimeter 29.9" Hg
Pressure 1011.8 hPa
Elevation 155
METAR KRDD 212153Z 12004KT 10SM CLR 36/03 A2990 RMK AO2 SLP118 T03560028
Observed Flight Rules
Jun-21 @ 21:53 UTC
(13 minutes ago)
VFR
Wind Visibility
120° at 4 knots 10 miles
Clouds
  • Clear skies
Temperature Dewpoint
36°C / 97°F 3°C / 37°F
Humidity Altimeter Pressure
13% 29.9" Hg 1011.8 hPa